International Virtual Aviation Organisation

Russian Federation and Kazakhstan MCD

 

Карточка аэропорта UWKD

Внимание!
Информация на этой странице в стадии наполнения.
Если вы не увидели какой-то информации, или заметили неточность - пожалуйста сообщите нам!
Спасибо!
Команда RU-STAFF
Название аэропортаКазань
Название аэропорта (англ.)Kazan
Превышение413 ft. (125.9 m.)
Координаты55°36.498', 49°16.668'
Высота перехода900m
Эшелон переходаQFE>=749mm:FL050; QFE<749=>722:FL060; QFE<722:FL070
Коды ответчика6732-6737
Зона ОрВДСамара РПИ (UWWW)
Данные METARUWKD 260630Z 23004MPS CAVOK 01/M05 Q1010 R29/820040 NOSIG RMK QFE746/0995
Проноз погоды (TAF)UWKD 260455Z 2606/2706 23005G12MPS 9999 BKN015 TX02/2612Z TNM01/2606Z BECMG 2609/2611 18006G12MPS BECMG 2615/2616 3100 -SNRA BR OVC011 TEMPO 2616/2624 20008G15MPS 0900 +SNRA OVC003 TEMPO 2700/2706 21006G12MPS
NOTAMshow/hide NOTAM
AWOS   TABLE

Информация о ВПП

ВПП Длина ВПП (м.) Покрытие Курс ВПП Частота ILS
113750Цементобетон112110.5
293750Цементобетон292111.7

Диспетчерские позиции

Позывной Наименование органа УВД Частота
UWKD_R_APPКазань-Круг119.400
UWKD_TWRКазань-Старт120.300
UWKD_GNDКазань-Руление121.7



Спутниковое изображение